Time;durP1;ratioP1;P1;durP2;ratioP2;P2;SDS_P1;SDS_P2;PMS_P1;PMS_P2;Temp;Humidity;BMP_temperature;BMP_pressure;BME280_temperature;BME280_humidity;BME280_pressure;Samples;Min_cycle;Max_cycle;Signal;HPM_P1;HPM_P2
2022/03/17 00:00:07;;;;;;;14.43;10.52;;;2.40;98.90;;;;;;5055703;28;20693;-68
2022/03/17 00:02:33;;;;;;;13.85;10.23;;;2.40;98.90;;;;;;5063142;28;20036;-67
2022/03/17 00:04:58;;;;;;;11.18;9.18;;;2.50;98.60;;;;;;5071884;28;20028;-67
2022/03/17 00:07:24;;;;;;;12.02;9.70;;;2.50;98.90;;;;;;5073787;28;20040;-67
2022/03/17 00:09:50;;;;;;;11.20;8.88;;;2.50;98.70;;;;;;5069048;28;20040;-67
2022/03/17 00:12:15;;;;;;;13.07;10.00;;;2.40;98.70;;;;;;5069840;28;20051;-66
2022/03/17 00:14:41;;;;;;;14.35;10.10;;;2.50;98.90;;;;;;5074058;28;20051;-67
2022/03/17 00:17:08;;;;;;;11.65;9.35;;;2.60;98.70;;;;;;5071707;28;20032;-67
2022/03/17 00:19:34;;;;;;;10.05;7.40;;;2.60;98.60;;;;;;5069058;28;20867;-66
2022/03/17 00:21:59;;;;;;;13.05;10.02;;;2.50;98.00;;;;;;5072707;28;20101;-67
2022/03/17 00:24:25;;;;;;;15.35;10.63;;;2.30;98.40;;;;;;5069312;28;20845;-67
2022/03/17 00:26:51;;;;;;;10.27;6.82;;;2.20;98.80;;;;;;5073231;28;20146;-67
2022/03/17 00:29:19;;;;;;;8.38;6.72;;;2.20;97.90;;;;;;5066780;28;20101;-67
2022/03/17 00:31:44;;;;;;;8.73;6.50;;;2.10;97.70;;;;;;5070333;28;20046;-67
2022/03/17 00:34:10;;;;;;;7.75;5.22;;;1.90;97.90;;;;;;5076039;28;20039;-67
2022/03/17 00:36:36;;;;;;;7.95;6.25;;;1.80;98.00;;;;;;5070988;28;20090;-67
2022/03/17 00:39:04;;;;;;;9.57;7.18;;;1.80;98.10;;;;;;5072411;28;20058;-68
2022/03/17 00:41:30;;;;;;;8.50;6.72;;;1.70;98.50;;;;;;5074421;28;20032;-68
2022/03/17 00:43:55;;;;;;;9.50;6.45;;;1.70;98.70;;;;;;5076452;28;20769;-68
2022/03/17 00:46:22;;;;;;;10.02;7.80;;;1.80;98.30;;;;;;5076814;28;20032;-68
2022/03/17 00:48:47;;;;;;;10.48;7.55;;;1.90;98.30;;;;;;5074833;28;20091;-68
2022/03/17 00:51:13;;;;;;;9.88;7.28;;;1.90;98.30;;;;;;5071258;28;20954;-68
2022/03/17 00:53:38;;;;;;;8.75;7.43;;;1.90;98.40;;;;;;5077040;28;20138;-70
2022/03/17 00:56:04;;;;;;;11.68;8.40;;;1.90;98.50;;;;;;5076488;28;20493;-70
2022/03/17 00:58:30;;;;;;;11.18;8.55;;;1.90;98.50;;;;;;5073200;28;20502;-70
2022/03/17 01:00:56;;;;;;;10.98;8.65;;;1.80;98.70;;;;;;5072987;28;20695;-69
2022/03/17 01:03:22;;;;;;;11.15;8.57;;;1.80;99.20;;;;;;5073410;28;20037;-70
2022/03/17 01:05:48;;;;;;;11.13;8.38;;;1.80;99.10;;;;;;5068226;28;20044;-70
2022/03/17 01:08:13;;;;;;;11.15;8.73;;;1.80;98.80;;;;;;5074275;28;20102;-70
2022/03/17 01:10:42;;;;;;;12.75;8.60;;;1.70;98.00;;;;;;5073416;28;20044;-70
2022/03/17 01:13:08;;;;;;;10.57;8.40;;;1.60;98.40;;;;;;5078728;28;20058;-70
2022/03/17 01:15:34;;;;;;;11.98;8.57;;;1.60;98.80;;;;;;5073579;28;20033;-69
2022/03/17 01:17:59;;;;;;;10.55;8.90;;;1.70;99.10;;;;;;5071370;28;20493;-69
2022/03/17 01:20:25;;;;;;;10.38;8.73;;;1.70;98.80;;;;;;5075604;28;20040;-69
2022/03/17 01:22:51;;;;;;;11.77;8.60;;;1.70;98.70;;;;;;5074959;28;20028;-69
2022/03/17 01:25:17;;;;;;;13.88;9.82;;;1.60;98.80;;;;;;5074310;28;20048;-68
2022/03/17 01:27:42;;;;;;;8.75;7.25;;;1.60;98.70;;;;;;5064876;28;20834;-62
2022/03/17 01:30:09;;;;;;;10.05;8.27;;;1.60;98.10;;;;;;5071758;28;20451;-69
2022/03/17 01:32:38;;;;;;;11.10;8.55;;;1.60;98.40;;;;;;5069018;28;20309;-70
2022/03/17 01:35:05;;;;;;;11.25;8.40;;;1.50;98.10;;;;;;5073483;28;20154;-70
2022/03/17 01:37:31;;;;;;;12.40;8.90;;;1.40;98.10;;;;;;5070226;28;20474;-69
2022/03/17 01:39:57;;;;;;;23.73;15.45;;;1.30;98.60;;;;;;5072914;28;20160;-70
2022/03/17 01:42:22;;;;;;;13.43;10.80;;;1.40;98.90;;;;;;5074460;28;20113;-69
2022/03/17 01:44:48;;;;;;;12.98;9.80;;;1.50;99.20;;;;;;5072575;28;20044;-69
2022/03/17 01:47:29;;;;;;;14.95;10.05;;;1.60;99.30;;;;;;5071044;28;20044;-69
2022/03/17 01:50:10;;;;;;;13.82;10.20;;;1.70;99.20;;;;;;5075881;28;20040;-69
2022/03/17 01:52:36;;;;;;;11.95;9.43;;;1.80;99.50;;;;;;5069110;28;20040;-68
2022/03/17 01:55:04;;;;;;;23.02;16.20;;;1.90;99.40;;;;;;5064319;28;20565;-69
2022/03/17 01:57:29;;;;;;;20.35;13.45;;;1.90;99.60;;;;;;5071933;28;20040;-69
2022/03/17 01:59:55;;;;;;;15.38;12.15;;;1.90;99.20;;;;;;5073584;28;20116;-69
2022/03/17 02:02:21;;;;;;;21.90;15.23;;;1.90;99.30;;;;;;5054734;28;20088;-69
2022/03/17 02:04:47;;;;;;;22.55;15.98;;;1.80;99.30;;;;;;5050229;28;20047;-69
2022/03/17 02:07:14;;;;;;;15.02;10.48;;;1.80;99.30;;;;;;5053216;28;20033;-69
2022/03/17 02:09:41;;;;;;;18.30;10.60;;;1.80;99.10;;;;;;5041257;28;20174;-69
2022/03/17 02:15:03;;;;;;;15.13;10.23;;;1.70;98.60;;;;;;5056848;28;20564;-70
2022/03/17 02:17:32;;;;;;;12.90;9.55;;;1.70;98.20;;;;;;5053362;28;20126;-70
2022/03/17 02:19:59;;;;;;;13.32;9.57;;;1.50;97.70;;;;;;5055770;28;20463;-70
2022/03/17 02:22:26;;;;;;;34.63;20.50;;;1.30;98.30;;;;;;5052001;28;20041;-70
2022/03/17 02:27:41;;;;;;;13.85;11.10;;;1.40;99.00;;;;;;5051769;28;20138;-70
2022/03/17 02:30:08;;;;;;;17.33;12.15;;;1.60;98.80;;;;;;5050717;28;20065;-70
2022/03/17 02:32:34;;;;;;;13.00;10.55;;;1.60;98.80;;;;;;5049994;28;20498;-70
2022/03/17 02:35:14;;;;;;;16.58;10.32;;;1.70;98.70;;;;;;5052649;28;20060;-70
2022/03/17 02:37:40;;;;;;;15.20;10.93;;;1.90;98.50;;;;;;5055158;28;20040;-70
2022/03/17 02:40:08;;;;;;;12.02;8.35;;;1.80;98.10;;;;;;5054760;28;20056;-71
2022/03/17 02:42:36;;;;;;;8.63;7.38;;;1.60;98.00;;;;;;5052445;28;20045;-71
2022/03/17 02:45:04;;;;;;;11.82;9.43;;;1.50;98.30;;;;;;5032913;28;20521;-70
2022/03/17 02:47:30;;;;;;;11.55;9.13;;;1.50;98.50;;;;;;5050213;28;20118;-70
2022/03/17 02:49:56;;;;;;;13.25;10.55;;;1.50;98.50;;;;;;5056715;28;20629;-70
2022/03/17 02:52:23;;;;;;;12.60;9.55;;;1.70;98.50;;;;;;5053167;28;20036;-69
2022/03/17 02:54:49;;;;;;;14.75;9.88;;;1.80;98.50;;;;;;5054131;28;20070;-69
2022/03/17 02:57:15;;;;;;;16.20;10.05;;;1.80;98.40;;;;;;5050238;28;20029;-69
2022/03/17 02:59:41;;;;;;;12.07;9.07;;;1.80;98.40;;;;;;5054871;28;20064;-69
2022/03/17 03:02:07;;;;;;;17.20;12.48;;;1.70;97.20;;;;;;5060211;28;20110;-69
2022/03/17 03:04:36;;;;;;;11.00;8.68;;;1.50;97.80;;;;;;5070086;28;20505;-69
2022/03/17 03:07:02;;;;;;;10.85;8.00;;;1.30;97.10;;;;;;5072561;28;20048;-69
2022/03/17 03:09:29;;;;;;;12.82;9.27;;;1.10;97.00;;;;;;5069864;28;20028;-69
2022/03/17 03:11:55;;;;;;;11.02;8.68;;;1.00;97.30;;;;;;5072668;28;20032;-70
2022/03/17 03:14:21;;;;;;;18.98;11.98;;;0.90;97.30;;;;;;5069548;28;20798;-71
2022/03/17 03:16:48;;;;;;;29.75;17.75;;;0.90;98.00;;;;;;5068643;28;20042;-70
2022/03/17 03:19:14;;;;;;;19.63;13.32;;;1.00;98.20;;;;;;5075731;28;20086;-70
2022/03/17 03:21:39;;;;;;;19.95;12.75;;;1.20;98.20;;;;;;5070201;28;20040;-70
2022/03/17 03:24:05;;;;;;;18.05;12.02;;;1.30;98.50;;;;;;5075678;28;20040;-70
2022/03/17 03:26:31;;;;;;;16.25;11.63;;;1.30;98.60;;;;;;5071570;28;20046;-70
2022/03/17 03:28:56;;;;;;;11.65;9.18;;;1.40;98.20;;;;;;5057226;28;20040;-70
2022/03/17 03:31:22;;;;;;;12.32;8.05;;;1.30;97.50;;;;;;5074790;28;20110;-69
2022/03/17 03:33:49;;;;;;;16.67;10.52;;;1.10;97.30;;;;;;5073686;28;20639;-69
2022/03/17 03:39:00;;;;;;;13.82;9.85;;;0.90;98.20;;;;;;5069488;28;20182;-69
2022/03/17 03:41:25;;;;;;;21.08;16.25;;;0.90;98.20;;;;;;5068676;28;20056;-69
2022/03/17 03:43:51;;;;;;;14.65;10.25;;;1.00;98.10;;;;;;5071497;28;20028;-69
2022/03/17 03:46:17;;;;;;;11.32;8.70;;;1.00;97.90;;;;;;5073241;28;20039;-69
2022/03/17 03:48:43;;;;;;;56.67;32.47;;;0.90;97.60;;;;;;5070473;28;20063;-70
2022/03/17 03:51:08;;;;;;;29.95;18.83;;;0.90;97.80;;;;;;5073611;28;20736;-70
2022/03/17 03:56:18;;;;;;;13.80;9.93;;;1.00;97.80;;;;;;5070685;28;20125;-70
2022/03/17 03:58:43;;;;;;;16.48;11.25;;;0.90;97.60;;;;;;5070994;28;20041;-70
2022/03/17 04:01:10;;;;;;;15.05;11.00;;;0.90;97.70;;;;;;5072484;28;20044;-70
2022/03/17 04:03:35;;;;;;;11.80;8.73;;;0.90;97.70;;;;;;5075538;28;20063;-70
2022/03/17 04:06:01;;;;;;;10.00;7.65;;;0.80;97.40;;;;;;5070694;28;20075;-70
2022/03/17 04:08:26;;;;;;;10.30;8.60;;;0.70;97.10;;;;;;5073423;28;20068;-68
2022/03/17 04:10:52;;;;;;;12.70;7.68;;;0.60;97.10;;;;;;5066385;28;20578;-69
2022/03/17 04:13:18;;;;;;;11.63;9.25;;;0.50;97.00;;;;;;5074450;28;20024;-69
2022/03/17 04:15:43;;;;;;;12.10;8.85;;;0.30;97.10;;;;;;5077996;28;20131;-68
2022/03/17 04:18:09;;;;;;;14.55;10.20;;;0.20;97.90;;;;;;5074027;28;20131;-69
2022/03/17 04:20:35;;;;;;;11.77;8.75;;;0.20;98.40;;;;;;5076401;28;20045;-69
2022/03/17 04:23:00;;;;;;;10.60;8.98;;;0.30;98.30;;;;;;5057689;28;20028;-69
2022/03/17 04:25:26;;;;;;;18.95;12.65;;;0.30;98.30;;;;;;5072990;28;20036;-70
2022/03/17 04:27:52;;;;;;;13.48;9.25;;;0.30;98.30;;;;;;5077230;28;20016;-70
2022/03/17 04:30:17;;;;;;;12.52;8.90;;;0.30;98.00;;;;;;5070894;28;20055;-70
2022/03/17 04:32:43;;;;;;;10.65;8.70;;;0.40;98.00;;;;;;5077178;28;20048;-70
2022/03/17 04:35:09;;;;;;;12.45;8.98;;;0.30;98.20;;;;;;5075075;28;20032;-69
2022/03/17 04:37:35;;;;;;;11.63;9.07;;;0.40;98.20;;;;;;5078303;28;20037;-70
2022/03/17 04:40:01;;;;;;;11.48;8.38;;;0.40;98.20;;;;;;5078251;28;20714;-69
2022/03/17 04:42:27;;;;;;;12.38;8.43;;;0.40;98.10;;;;;;5076735;28;20057;-70
2022/03/17 04:44:53;;;;;;;12.60;9.43;;;0.40;98.00;;;;;;5077790;28;20403;-70
2022/03/17 04:47:18;;;;;;;10.75;8.85;;;0.40;97.90;;;;;;5076229;28;20473;-70
2022/03/17 04:49:44;;;;;;;11.02;9.35;;;0.40;97.90;;;;;;5074958;28;20064;-70
2022/03/17 04:53:27;;;;;;;11.98;8.48;;;0.40;98.00;;;;;;5075466;28;20066;-70
2022/03/17 04:54:55;;;;;;;11.50;8.82;;;0.50;98.00;;;;;;5077393;28;20043;-69
2022/03/17 04:57:24;;;;;;;13.30;9.40;;;0.60;97.90;;;;;;5072619;28;20039;-69
2022/03/17 04:59:50;;;;;;;11.52;9.40;;;0.70;98.00;;;;;;5058769;28;20123;-68
2022/03/17 05:02:15;;;;;;;14.55;9.88;;;0.70;97.70;;;;;;5072401;28;20136;-70
2022/03/17 05:04:41;;;;;;;14.68;10.57;;;0.80;97.90;;;;;;5073199;28;20024;-70
2022/03/17 05:07:06;;;;;;;14.18;10.85;;;0.80;97.80;;;;;;5075972;28;20599;-69
2022/03/17 05:09:33;;;;;;;13.95;10.30;;;0.80;98.00;;;;;;5082046;28;20051;-69
2022/03/17 05:11:58;;;;;;;13.63;8.48;;;0.70;98.00;;;;;;5074938;28;20133;-69
2022/03/17 05:14:24;;;;;;;11.77;9.00;;;0.60;97.50;;;;;;5081495;28;20053;-69
2022/03/17 05:16:49;;;;;;;11.38;9.07;;;0.40;96.80;;;;;;5077519;28;20032;-69
2022/03/17 05:19:15;;;;;;;12.40;9.05;;;0.30;96.50;;;;;;5078497;28;20048;-69
2022/03/17 05:21:41;;;;;;;13.75;9.63;;;0.20;97.00;;;;;;5071616;28;20044;-69
2022/03/17 05:24:07;;;;;;;10.48;9.10;;;0.20;97.30;;;;;;5069839;28;20036;-71
2022/03/17 05:26:33;;;;;;;12.90;9.82;;;0.30;97.70;;;;;;5076198;28;20151;-69
2022/03/17 05:28:58;;;;;;;15.48;10.70;;;0.40;98.00;;;;;;5073812;28;20036;-71
2022/03/17 05:31:24;;;;;;;15.68;12.07;;;0.50;98.10;;;;;;5071654;28;20116;-68
2022/03/17 05:33:50;;;;;;;17.15;10.93;;;0.60;98.30;;;;;;5072740;28;20124;-71
2022/03/17 05:36:15;;;;;;;16.48;11.90;;;0.80;98.30;;;;;;5074687;28;20058;-69
2022/03/17 05:38:41;;;;;;;12.05;9.27;;;0.80;98.60;;;;;;5074854;28;20592;-71
2022/03/17 05:41:07;;;;;;;13.30;9.68;;;0.90;98.20;;;;;;5056760;28;20914;-69
2022/03/17 05:43:33;;;;;;;13.98;10.38;;;1.00;97.30;;;;;;5041161;28;20044;-70
2022/03/17 05:45:58;;;;;;;12.30;8.88;;;0.90;97.10;;;;;;5071734;28;21039;-69
2022/03/17 05:48:24;;;;;;;15.57;10.18;;;0.90;97.40;;;;;;5070246;28;20040;-69
2022/03/17 05:50:50;;;;;;;14.95;10.23;;;1.00;97.80;;;;;;5071663;28;20074;-69
2022/03/17 05:53:15;;;;;;;16.02;10.40;;;1.10;98.20;;;;;;5071436;28;20036;-69
2022/03/17 05:55:41;;;;;;;15.38;10.90;;;1.10;98.00;;;;;;5072226;28;20096;-69
2022/03/17 05:58:07;;;;;;;19.27;12.57;;;1.20;98.30;;;;;;5068366;28;20040;-69
2022/03/17 06:00:35;;;;;;;25.85;15.65;;;1.40;98.40;;;;;;5075941;28;20055;-69
2022/03/17 06:03:00;;;;;;;24.95;15.38;;;1.60;98.40;;;;;;5067510;28;20135;-66
2022/03/17 06:05:28;;;;;;;25.67;15.30;;;1.90;98.10;;;;;;5073358;28;20044;-69
2022/03/17 06:07:59;;;;;;;21.20;13.80;;;2.20;98.00;;;;;;5042347;28;20490;-67
2022/03/17 06:10:27;;;;;;;19.63;13.93;;;2.50;97.90;;;;;;5075264;28;20078;-66
2022/03/17 06:12:53;;;;;;;23.55;16.60;;;2.90;98.10;;;;;;5070107;28;20040;-69
2022/03/17 06:15:20;;;;;;;30.15;17.40;;;3.30;97.90;;;;;;5072039;28;20063;-69
2022/03/17 06:17:52;;;;;;;23.88;18.15;;;3.70;97.60;;;;;;5073113;28;20123;-70
2022/03/17 06:20:20;;;;;;;26.23;18.70;;;4.00;97.20;;;;;;5072690;28;20047;-71
2022/03/17 06:22:48;;;;;;;29.40;20.05;;;4.30;96.80;;;;;;5073935;28;20037;-69
2022/03/17 06:25:17;;;;;;;43.70;28.00;;;4.50;96.80;;;;;;5070247;28;20111;-72
2022/03/17 06:27:44;;;;;;;41.25;26.58;;;4.50;96.50;;;;;;5059232;28;20067;-69
2022/03/17 06:30:15;;;;;;;23.98;18.40;;;4.50;96.80;;;;;;5071611;28;20028;-70
2022/03/17 06:32:42;;;;;;;23.17;17.53;;;4.40;97.20;;;;;;5071385;28;20115;-69
2022/03/17 06:35:17;;;;;;;24.73;17.73;;;4.40;97.30;;;;;;5075706;28;20218;-69
2022/03/17 06:37:44;;;;;;;24.48;18.45;;;4.50;97.40;;;;;;5076350;28;20036;-72
2022/03/17 06:40:11;;;;;;;25.42;18.67;;;4.70;97.70;;;;;;5073067;28;20056;-72
2022/03/17 06:42:37;;;;;;;26.67;19.27;;;4.90;97.50;;;;;;5076175;28;20048;-72
2022/03/17 06:45:03;;;;;;;19.17;14.10;;;5.10;97.60;;;;;;5074359;28;20137;-72
2022/03/17 06:47:29;;;;;;;20.35;14.63;;;5.40;97.30;;;;;;5073309;28;20036;-72
2022/03/17 06:49:54;;;;;;;20.33;15.45;;;5.80;96.60;;;;;;5071265;28;20029;-72
2022/03/17 06:52:20;;;;;;;20.20;14.00;;;6.10;95.90;;;;;;5076518;28;20040;-72
2022/03/17 06:54:46;;;;;;;19.10;14.75;;;6.30;95.10;;;;;;5071348;28;20697;-72
2022/03/17 06:57:19;;;;;;;19.67;15.50;;;6.50;94.50;;;;;;5070822;28;20050;-72
2022/03/17 06:59:46;;;;;;;19.00;14.05;;;6.70;94.10;;;;;;5074390;28;20616;-68
2022/03/17 07:02:12;;;;;;;16.85;13.68;;;6.80;94.00;;;;;;5070999;28;20633;-69
2022/03/17 07:04:37;;;;;;;20.67;14.95;;;6.80;93.70;;;;;;5070116;28;20390;-69
2022/03/17 07:07:03;;;;;;;20.23;14.30;;;6.90;93.80;;;;;;5075127;28;20028;-69
2022/03/17 07:09:29;;;;;;;18.27;13.70;;;6.90;93.70;;;;;;5072016;28;20470;-69
2022/03/17 07:11:54;;;;;;;21.83;15.77;;;7.00;93.50;;;;;;5056171;28;20119;-69
2022/03/17 07:14:20;;;;;;;17.92;14.30;;;7.00;93.60;;;;;;5071426;28;20029;-69
2022/03/17 07:16:46;;;;;;;20.60;15.98;;;7.00;93.50;;;;;;5070334;28;20047;-69
2022/03/17 07:19:11;;;;;;;19.92;16.40;;;7.00;93.20;;;;;;5071585;28;20071;-71
2022/03/17 07:21:37;;;;;;;17.98;14.75;;;7.20;93.20;;;;;;5053569;28;20076;-70
2022/03/17 07:24:05;;;;;;;21.50;15.05;;;7.30;93.00;;;;;;5057769;28;20032;-70
2022/03/17 07:26:30;;;;;;;20.98;15.82;;;7.40;92.50;;;;;;5071332;28;20046;-71
2022/03/17 07:28:56;;;;;;;19.95;15.48;;;7.50;92.40;;;;;;5068809;28;20062;-70
2022/03/17 07:31:24;;;;;;;19.42;15.18;;;7.50;92.20;;;;;;5057437;28;20029;-70
2022/03/17 07:33:50;;;;;;;18.25;14.57;;;7.50;91.80;;;;;;5068420;28;20451;-70
2022/03/17 07:36:16;;;;;;;20.92;15.90;;;7.60;91.80;;;;;;5050446;28;20524;-70
2022/03/17 07:38:42;;;;;;;21.25;15.98;;;7.70;91.10;;;;;;5073768;28;20037;-71
2022/03/17 07:41:08;;;;;;;21.85;16.58;;;7.60;90.50;;;;;;5072635;28;20531;-70
2022/03/17 07:43:33;;;;;;;24.42;17.85;;;7.80;90.90;;;;;;5077391;28;20037;-69
2022/03/17 07:45:59;;;;;;;19.80;15.75;;;7.90;90.70;;;;;;5072714;28;20040;-70
2022/03/17 07:48:25;;;;;;;22.85;16.63;;;7.90;90.10;;;;;;5072561;28;20033;-70
2022/03/17 07:50:51;;;;;;;23.25;17.45;;;7.90;88.30;;;;;;5074493;28;21095;-71
2022/03/17 07:53:17;;;;;;;20.27;16.70;;;7.80;88.50;;;;;;5074973;28;20404;-71
2022/03/17 07:55:43;;;;;;;21.88;18.20;;;7.70;88.50;;;;;;5075256;28;20032;-71
2022/03/17 07:58:12;;;;;;;23.13;16.05;;;7.70;89.30;;;;;;5068874;28;20033;-69
2022/03/17 08:00:39;;;;;;;23.40;16.40;;;7.80;90.50;;;;;;5068370;28;20446;-69
2022/03/17 08:03:05;;;;;;;22.50;17.00;;;8.00;89.60;;;;;;5071641;28;20654;-68
2022/03/17 08:05:31;;;;;;;19.95;16.50;;;8.00;88.70;;;;;;5071233;28;20044;-68
2022/03/17 08:07:59;;;;;;;22.05;17.35;;;8.10;88.20;;;;;;5073132;28;20032;-69
2022/03/17 08:10:25;;;;;;;20.55;16.08;;;8.10;86.60;;;;;;5067917;28;20028;-69
2022/03/17 08:12:51;;;;;;;24.88;18.00;;;8.20;87.30;;;;;;5070204;28;20047;-69
2022/03/17 08:15:16;;;;;;;25.90;19.23;;;8.30;88.30;;;;;;5067686;28;20678;-69
2022/03/17 08:17:42;;;;;;;21.83;17.23;;;8.50;84.90;;;;;;5071658;28;20082;-70
2022/03/17 08:20:08;;;;;;;27.95;18.00;;;8.50;84.60;;;;;;5065349;28;20075;-70
2022/03/17 08:22:34;;;;;;;22.65;16.40;;;8.70;84.50;;;;;;5070767;28;20042;-69
2022/03/17 08:25:00;;;;;;;22.75;18.13;;;8.80;85.70;;;;;;5071607;28;20051;-70
2022/03/17 08:27:25;;;;;;;22.38;17.10;;;8.90;82.80;;;;;;5069038;28;20067;-70
2022/03/17 08:29:51;;;;;;;24.42;18.77;;;8.90;83.20;;;;;;5070007;28;20106;-69
2022/03/17 08:32:17;;;;;;;24.67;17.52;;;8.90;82.60;;;;;;5059573;28;20051;-69
2022/03/17 08:34:43;;;;;;;22.75;17.90;;;9.00;82.60;;;;;;5067749;28;20101;-69
2022/03/17 08:37:09;;;;;;;35.53;28.15;;;9.10;83.50;;;;;;5068891;28;20048;-68
2022/03/17 08:39:35;;;;;;;24.27;18.38;;;9.20;82.40;;;;;;5069077;28;20036;-69
2022/03/17 08:42:01;;;;;;;23.85;19.42;;;9.20;82.20;;;;;;5065169;28;20032;-68
2022/03/17 08:44:26;;;;;;;22.02;18.05;;;9.40;82.90;;;;;;5073640;28;20450;-69
2022/03/17 08:49:36;;;;;;;24.35;18.35;;;9.60;81.60;;;;;;5070387;28;20832;-69
2022/03/17 08:52:03;;;;;;;22.02;17.50;;;9.90;81.30;;;;;;5073638;28;20040;-68
2022/03/17 08:54:30;;;;;;;23.67;18.33;;;10.00;80.20;;;;;;5071811;28;20058;-69
2022/03/17 08:57:00;;;;;;;25.33;17.75;;;10.00;80.20;;;;;;5076158;28;20031;-70
2022/03/17 08:59:36;;;;;;;25.30;17.92;;;10.00;80.00;;;;;;5075000;28;20119;-70
2022/03/17 09:02:03;;;;;;;22.77;17.25;;;10.20;78.60;;;;;;5074066;28;20044;-70
2022/03/17 09:04:29;;;;;;;25.52;18.70;;;10.40;79.50;;;;;;5077948;28;20033;-69
2022/03/17 09:06:59;;;;;;;21.85;17.70;;;10.40;79.60;;;;;;5075622;28;20033;-69
2022/03/17 09:09:28;;;;;;;25.20;19.77;;;10.50;80.60;;;;;;5079505;28;20393;-70
2022/03/17 09:11:54;;;;;;;28.00;22.05;;;10.60;78.90;;;;;;5080498;28;20066;-70
2022/03/17 09:14:21;;;;;;;26.10;18.83;;;10.70;77.70;;;;;;5061775;28;20493;-70
2022/03/17 09:16:47;;;;;;;26.77;18.88;;;10.70;76.80;;;;;;5071045;28;20064;-69
2022/03/17 09:19:13;;;;;;;24.98;18.92;;;10.70;76.20;;;;;;5074471;28;20115;-70
2022/03/17 09:21:38;;;;;;;22.35;17.80;;;10.80;75.90;;;;;;5072167;28;20119;-70
2022/03/17 09:24:04;;;;;;;22.52;17.38;;;11.00;75.10;;;;;;5069144;28;20559;-69
2022/03/17 09:26:33;;;;;;;24.00;18.88;;;11.30;73.00;;;;;;5079301;28;20394;-70
2022/03/17 09:28:59;;;;;;;23.98;17.48;;;11.20;71.80;;;;;;5079911;28;20028;-70
2022/03/17 09:31:26;;;;;;;23.80;18.05;;;11.20;73.00;;;;;;5078239;28;20041;-70
2022/03/17 09:33:52;;;;;;;22.58;17.33;;;11.30;72.30;;;;;;5074211;28;20086;-68
2022/03/17 09:36:18;;;;;;;24.90;17.67;;;11.30;72.50;;;;;;5072371;28;20036;-68
2022/03/17 09:39:39;;;;;;;22.98;16.95;;;11.40;72.50;;;;;;5074006;28;20127;-67
2022/03/17 09:41:33;;;;;;;20.70;17.15;;;11.50;72.50;;;;;;5074047;28;20071;-68
2022/03/17 09:43:59;;;;;;;23.48;17.58;;;11.60;69.60;;;;;;5074073;28;20405;-68
2022/03/17 09:46:27;;;;;;;24.90;17.38;;;11.60;69.10;;;;;;5080080;28;20063;-68
2022/03/17 09:48:55;;;;;;;21.17;17.10;;;11.70;68.30;;;;;;5076640;28;20041;-68
2022/03/17 09:51:24;;;;;;;23.23;17.98;;;11.80;70.00;;;;;;5073780;28;20037;-70
2022/03/17 09:53:53;;;;;;;23.73;17.58;;;11.80;70.20;;;;;;5073580;28;20028;-70
2022/03/17 09:56:25;;;;;;;26.45;17.95;;;11.70;71.70;;;;;;5076876;28;20040;-70
2022/03/17 09:58:58;;;;;;;23.75;17.00;;;11.80;71.70;;;;;;5074507;28;20040;-71
2022/03/17 10:01:28;;;;;;;25.05;16.48;;;12.10;67.60;;;;;;5077802;28;20123;-70
2022/03/17 10:04:01;;;;;;;23.27;18.23;;;12.10;66.60;;;;;;5082469;28;20159;-70
2022/03/17 10:06:29;;;;;;;22.50;17.80;;;12.10;68.00;;;;;;5069651;28;20044;-70
2022/03/17 10:08:56;;;;;;;19.42;17.05;;;12.10;67.70;;;;;;5072595;28;20392;-70
2022/03/17 10:11:37;;;;;;;21.45;15.30;;;12.20;68.00;;;;;;5071101;28;20067;-69
2022/03/17 10:14:05;;;;;;;23.90;17.08;;;12.30;64.30;;;;;;5058249;28;20615;-68
2022/03/17 10:16:31;;;;;;;20.67;17.20;;;12.30;64.70;;;;;;5075171;28;20049;-70
2022/03/17 10:19:08;;;;;;;21.90;16.25;;;12.30;65.10;;;;;;5072501;28;20079;-69
2022/03/17 10:21:34;;;;;;;22.02;16.52;;;12.40;65.70;;;;;;5079679;28;20044;-69
2022/03/17 10:24:08;;;;;;;22.13;17.33;;;12.50;65.80;;;;;;5078110;28;20040;-69
2022/03/17 10:26:37;;;;;;;20.73;17.20;;;12.60;65.50;;;;;;5073023;28;20497;-69
2022/03/17 10:29:20;;;;;;;24.30;17.75;;;12.70;63.80;;;;;;5074497;28;20037;-68
2022/03/17 10:32:05;;;;;;;26.58;17.38;;;12.60;64.50;;;;;;5078636;28;20119;-69
2022/03/17 10:34:55;;;;;;;20.23;17.30;;;12.60;63.40;;;;;;5074956;28;20090;-68
2022/03/17 10:37:22;;;;;;;21.45;17.85;;;12.60;62.60;;;;;;5080166;28;20024;-68
2022/03/17 10:39:49;;;;;;;18.92;16.13;;;12.50;64.30;;;;;;5074335;28;20040;-68
2022/03/17 10:42:20;;;;;;;19.08;15.90;;;12.60;62.50;;;;;;5074450;28;20036;-68
2022/03/17 10:44:52;;;;;;;23.48;16.67;;;12.70;62.80;;;;;;5074129;28;20036;-69
2022/03/17 10:47:26;;;;;;;28.27;17.35;;;12.80;61.90;;;;;;5077041;28;20751;-69
2022/03/17 10:50:07;;;;;;;20.13;15.93;;;12.80;61.40;;;;;;5076409;28;20032;-68
2022/03/17 10:52:52;;;;;;;20.40;16.60;;;12.70;61.90;;;;;;5070910;28;20040;-68
2022/03/17 10:55:22;;;;;;;20.92;16.25;;;12.70;61.40;;;;;;5076617;28;20040;-68
2022/03/17 10:57:49;;;;;;;20.27;16.02;;;12.80;60.30;;;;;;5069112;28;20123;-67
2022/03/17 11:00:28;;;;;;;19.83;15.90;;;12.60;59.90;;;;;;5074509;28;20060;-68
2022/03/17 11:02:58;;;;;;;23.08;17.45;;;12.50;59.70;;;;;;5068792;28;20110;-68
2022/03/17 11:05:27;;;;;;;19.33;16.35;;;12.50;61.90;;;;;;5072832;28;20117;-68
2022/03/17 11:07:54;;;;;;;22.70;15.77;;;12.50;60.50;;;;;;5077650;28;20028;-70
2022/03/17 11:10:22;;;;;;;21.73;15.98;;;12.60;62.30;;;;;;5074419;28;20108;-70
2022/03/17 11:12:50;;;;;;;23.92;16.15;;;12.70;61.60;;;;;;5068132;28;20036;-70
2022/03/17 11:15:24;;;;;;;21.58;16.17;;;12.80;60.10;;;;;;5073040;28;20032;-70
2022/03/17 11:17:51;;;;;;;20.23;15.77;;;12.70;60.10;;;;;;5067558;28;20032;-70
2022/03/17 11:20:20;;;;;;;19.45;15.90;;;12.60;60.40;;;;;;5070851;28;20113;-70
2022/03/17 11:23:20;;;;;;;20.35;16.05;;;12.50;60.90;;;;;;5076531;28;20067;-70
2022/03/17 11:26:08;;;;;;;20.52;16.95;;;12.60;61.90;;;;;;5070771;28;20115;-70
2022/03/17 11:28:36;;;;;;;24.63;16.42;;;12.70;59.20;;;;;;5069974;28;20111;-68
2022/03/17 11:31:05;;;;;;;28.80;16.70;;;12.80;60.10;;;;;;5068392;28;20048;-68
2022/03/17 11:33:37;;;;;;;21.70;16.02;;;12.80;59.50;;;;;;5069274;28;20090;-68
2022/03/17 11:36:21;;;;;;;23.50;17.23;;;12.90;61.00;;;;;;5069239;28;20113;-68
2022/03/17 11:39:08;;;;;;;21.98;17.15;;;13.00;60.90;;;;;;5078003;28;20036;-67
2022/03/17 11:41:42;;;;;;;22.55;17.25;;;13.00;59.20;;;;;;5074972;28;20048;-67
2022/03/17 11:44:07;;;;;;;21.15;17.88;;;12.90;60.90;;;;;;5073125;28;20032;-68
2022/03/17 11:46:44;;;;;;;21.52;16.85;;;13.00;59.90;;;;;;5069180;28;20043;-68
2022/03/17 11:49:46;;;;;;;23.67;18.13;;;13.00;59.60;;;;;;5072190;28;20047;-67
2022/03/17 11:52:12;;;;;;;23.02;18.05;;;13.20;59.90;;;;;;5068764;28;20036;-68
2022/03/17 11:54:37;;;;;;;27.35;17.58;;;13.30;57.60;;;;;;5071202;28;20063;-67
2022/03/17 11:57:06;;;;;;;21.38;17.67;;;13.20;57.40;;;;;;5069096;28;20043;-68
2022/03/17 11:59:55;;;;;;;26.38;17.30;;;13.10;57.90;;;;;;5070471;28;20048;-68
2022/03/17 12:02:28;;;;;;;24.80;18.13;;;13.20;58.30;;;;;;5067920;28;20044;-68
2022/03/17 12:04:54;;;;;;;21.33;17.35;;;13.20;57.20;;;;;;5065396;28;20571;-70
2022/03/17 12:07:20;;;;;;;24.75;16.60;;;13.10;56.10;;;;;;5070416;28;20052;-70
2022/03/17 12:09:47;;;;;;;20.63;17.00;;;13.00;57.00;;;;;;5070671;28;20068;-70
2022/03/17 12:12:27;;;;;;;25.15;17.75;;;13.00;57.20;;;;;;5076215;28;20042;-70
2022/03/17 12:14:57;;;;;;;23.38;17.52;;;13.00;57.40;;;;;;5072717;28;20055;-70
2022/03/17 12:17:28;;;;;;;24.52;18.98;;;13.00;56.50;;;;;;5070102;28;20127;-69
2022/03/17 12:20:11;;;;;;;22.25;17.83;;;12.90;58.30;;;;;;5072152;28;20035;-69
2022/03/17 12:22:44;;;;;;;20.75;16.60;;;13.00;58.70;;;;;;5068223;28;20546;-69
2022/03/17 12:25:14;;;;;;;21.83;17.75;;;13.00;56.60;;;;;;5069650;28;20108;-69
2022/03/17 12:27:40;;;;;;;20.95;16.88;;;13.00;56.50;;;;;;5070220;28;20024;-69
2022/03/17 12:30:07;;;;;;;21.73;17.23;;;12.90;57.00;;;;;;5070104;28;20036;-69
2022/03/17 12:32:35;;;;;;;20.23;16.67;;;13.00;56.90;;;;;;5052327;28;20630;-70
2022/03/17 12:35:02;;;;;;;24.13;17.27;;;13.10;56.40;;;;;;5073353;28;20032;-69
2022/03/17 12:37:30;;;;;;;19.42;15.95;;;13.20;56.50;;;;;;5060705;28;20024;-69
2022/03/17 12:40:00;;;;;;;23.38;17.10;;;13.10;56.30;;;;;;5071266;28;20044;-69
2022/03/17 12:42:28;;;;;;;22.35;16.58;;;13.00;55.40;;;;;;5070824;28;20550;-69
2022/03/17 12:45:17;;;;;;;20.58;16.65;;;13.00;55.70;;;;;;5075174;28;20597;-69
2022/03/17 12:47:48;;;;;;;20.95;17.08;;;13.00;55.60;;;;;;5066926;28;20039;-70
2022/03/17 12:50:18;;;;;;;22.90;17.20;;;13.10;55.90;;;;;;5070016;28;20048;-69
2022/03/17 12:52:46;;;;;;;23.13;16.85;;;13.10;55.80;;;;;;5069776;28;20782;-70
2022/03/17 12:55:14;;;;;;;23.33;16.52;;;13.00;55.20;;;;;;5070670;28;20048;-69